Time;durP1;ratioP1;P1;durP2;ratioP2;P2;SDS_P1;SDS_P2;PMS_P1;PMS_P2;Temp;Humidity;BMP_temperature;BMP_pressure;BME280_temperature;BME280_humidity;BME280_pressure;Samples;Min_cycle;Max_cycle;Signal;HPM_P1;HPM_P2
2023/06/17 00:00:39;;;;;;;;;;;;;;;13.36;72.46;92956.50;2054627;70;20046;-75
2023/06/17 00:03:05;;;;;;;;;;;;;;;13.21;73.20;92952.16;2054089;70;20085;-74
2023/06/17 00:05:30;;;;;;;;;;;;;;;13.13;73.77;92948.88;2050488;70;20066;-74
2023/06/17 00:07:59;;;;;;;;;;;;;;;13.14;73.17;92952.44;2054034;70;20078;-74
2023/06/17 00:10:26;;;;;;;;;;;;;;;13.18;73.04;92944.91;2050742;70;20121;-73
2023/06/17 00:12:52;;;;;;;;;;;;;;;13.00;73.83;92941.06;2055106;70;20081;-75
2023/06/17 00:15:20;;;;;;;;;;;;;;;13.09;73.62;92936.59;2053676;70;20051;-74
2023/06/17 00:17:50;;;;;;;;;;;;;;;13.04;74.11;92941.28;2051687;70;20097;-75
2023/06/17 00:20:15;;;;;;;;;;;;;;;13.02;73.95;92938.38;2050374;70;20512;-75
2023/06/17 00:22:43;;;;;;;;;;;;;;;13.04;73.31;92934.91;2054055;70;20050;-76
2023/06/17 00:25:08;;;;;;;;;;;;;;;13.16;72.86;92938.41;2050367;70;20149;-76
2023/06/17 00:27:35;;;;;;;;;;;;;;;13.18;71.77;92942.06;2050939;70;20460;-76
2023/06/17 00:30:02;;;;;;;;;;;;;;;12.85;74.64;92931.06;2054367;69;20062;-75
2023/06/17 00:32:28;;;;;;;;;;;;;;;12.74;74.18;92940.34;2048128;70;20074;-75
2023/06/17 00:34:56;;;;;;;;;;;;;;;13.02;73.13;92935.53;2051255;70;20430;-75
2023/06/17 00:37:22;;;;;;;;;;;;;;;12.87;73.83;92938.91;2054521;70;20138;-74
2023/06/17 00:39:47;;;;;;;;;;;;;;;12.97;72.93;92936.69;2054760;70;20141;-75
2023/06/17 00:42:13;;;;;;;;;;;;;;;12.88;73.93;92943.22;2054938;70;20057;-74
2023/06/17 00:44:40;;;;;;;;;;;;;;;12.88;73.55;92941.13;2054736;70;20117;-77
2023/06/17 00:47:11;;;;;;;;;;;;;;;12.89;73.24;92931.31;2051100;70;20467;-75
2023/06/17 00:49:37;;;;;;;;;;;;;;;12.73;74.77;92931.09;2054728;70;20090;-76
2023/06/17 00:52:04;;;;;;;;;;;;;;;12.88;74.13;92932.66;2050858;70;20115;-75
2023/06/17 00:54:31;;;;;;;;;;;;;;;12.86;73.53;92929.72;2051252;70;20054;-74
2023/06/17 00:56:58;;;;;;;;;;;;;;;12.69;74.59;92928.09;2054883;70;20046;-75
2023/06/17 00:59:25;;;;;;;;;;;;;;;12.77;74.46;92927.78;2054507;69;20093;-75
2023/06/17 01:01:51;;;;;;;;;;;;;;;12.87;73.60;92933.28;2050996;70;20149;-75
2023/06/17 01:04:18;;;;;;;;;;;;;;;12.86;73.65;92924.06;2055354;69;20069;-74
2023/06/17 01:06:55;;;;;;;;;;;;;;;12.85;73.54;92927.50;2057917;69;20177;-75
2023/06/17 01:09:24;;;;;;;;;;;;;;;12.91;73.89;92930.66;2053830;70;20050;-75
2023/06/17 01:11:53;;;;;;;;;;;;;;;13.03;72.23;92937.00;2050933;70;20482;-77
2023/06/17 01:14:20;;;;;;;;;;;;;;;12.85;73.73;92931.06;2054674;70;20054;-74
2023/06/17 01:16:50;;;;;;;;;;;;;;;12.79;73.11;92925.09;2053340;69;20070;-74
2023/06/17 01:19:20;;;;;;;;;;;;;;;12.67;73.94;92925.13;2057887;69;20080;-74
2023/06/17 01:21:51;;;;;;;;;;;;;;;12.75;73.81;92924.84;2057950;69;20161;-74
2023/06/17 01:24:25;;;;;;;;;;;;;;;12.68;74.34;92918.13;2058026;69;20050;-73
2023/06/17 01:26:55;;;;;;;;;;;;;;;12.72;73.95;92926.81;2054353;69;20081;-76
2023/06/17 01:29:22;;;;;;;;;;;;;;;12.82;73.55;92923.81;2057993;69;20049;-74
2023/06/17 01:31:49;;;;;;;;;;;;;;;12.82;73.81;92926.66;2057974;69;20116;-75
2023/06/17 01:34:16;;;;;;;;;;;;;;;12.76;73.09;92926.31;2051572;69;20049;-75
2023/06/17 01:36:42;;;;;;;;;;;;;;;12.75;73.73;92927.69;2058179;69;20050;-75
2023/06/17 01:39:10;;;;;;;;;;;;;;;12.72;74.32;92932.47;2056456;69;20046;-75
2023/06/17 01:41:37;;;;;;;;;;;;;;;12.51;74.98;92935.53;2054714;69;20069;-74
2023/06/17 01:44:06;;;;;;;;;;;;;;;12.75;73.13;92922.03;2050930;70;20084;-74
2023/06/17 01:46:32;;;;;;;;;;;;;;;12.67;73.60;92924.41;2054271;70;20121;-74
2023/06/17 01:48:57;;;;;;;;;;;;;;;12.76;71.99;92923.50;2054296;69;20055;-74
2023/06/17 01:51:23;;;;;;;;;;;;;;;12.59;73.77;92926.75;2053588;70;20054;-74
2023/06/17 01:53:50;;;;;;;;;;;;;;;12.70;73.05;92926.72;2054686;70;20085;-75
2023/06/17 01:56:16;;;;;;;;;;;;;;;12.63;74.14;92924.91;2054503;70;20233;-74
2023/06/17 01:58:42;;;;;;;;;;;;;;;12.56;74.37;92916.72;2054655;70;20551;-75
2023/06/17 02:01:09;;;;;;;;;;;;;;;12.60;73.97;92914.09;2050689;70;20050;-74
2023/06/17 02:03:35;;;;;;;;;;;;;;;12.58;74.64;92920.38;2054655;70;20414;-74
2023/06/17 02:06:01;;;;;;;;;;;;;;;12.69;73.88;92910.38;2051011;70;20065;-74
2023/06/17 02:08:27;;;;;;;;;;;;;;;12.64;73.74;92919.97;2050762;69;20141;-74
2023/06/17 02:10:53;;;;;;;;;;;;;;;12.57;74.35;92918.91;2054010;69;20050;-74
2023/06/17 02:13:18;;;;;;;;;;;;;;;12.48;75.10;92916.25;2055000;70;20054;-74
2023/06/17 02:15:44;;;;;;;;;;;;;;;12.51;74.59;92920.63;2054873;70;20046;-75
2023/06/17 02:18:12;;;;;;;;;;;;;;;12.54;74.10;92919.41;2051229;70;20054;-75
2023/06/17 02:20:38;;;;;;;;;;;;;;;12.68;73.58;92923.75;2051240;70;20061;-75
2023/06/17 02:23:04;;;;;;;;;;;;;;;12.69;72.21;92913.97;2054788;70;20142;-75
2023/06/17 02:25:29;;;;;;;;;;;;;;;12.63;73.54;92910.03;2055015;70;20149;-75
2023/06/17 02:27:56;;;;;;;;;;;;;;;12.64;73.96;92917.16;2054531;70;20136;-75
2023/06/17 02:30:21;;;;;;;;;;;;;;;12.34;75.47;92916.91;2054811;70;20059;-74
2023/06/17 02:32:47;;;;;;;;;;;;;;;12.41;75.15;92904.59;2051127;70;20053;-74
2023/06/17 02:35:13;;;;;;;;;;;;;;;12.21;75.94;92912.63;2051209;70;20057;-75
2023/06/17 02:37:40;;;;;;;;;;;;;;;12.09;76.69;92914.75;2048060;70;20430;-75
2023/06/17 02:40:08;;;;;;;;;;;;;;;12.37;74.95;92918.50;2052886;70;20102;-75
2023/06/17 02:42:37;;;;;;;;;;;;;;;12.28;75.63;92915.78;2051688;70;20054;-75
2023/06/17 02:45:04;;;;;;;;;;;;;;;12.27;75.77;92917.88;2055363;70;20101;-75
2023/06/17 02:47:30;;;;;;;;;;;;;;;12.33;74.25;92918.25;2053922;70;20165;-74
2023/06/17 02:49:55;;;;;;;;;;;;;;;12.12;76.03;92921.25;2055354;70;20224;-75
2023/06/17 02:52:21;;;;;;;;;;;;;;;12.17;75.66;92925.78;2055348;70;20057;-74
2023/06/17 02:54:48;;;;;;;;;;;;;;;12.33;74.12;92923.16;2051698;70;20146;-76
2023/06/17 02:57:18;;;;;;;;;;;;;;;12.17;75.34;92923.69;2051636;70;20050;-75
2023/06/17 02:59:44;;;;;;;;;;;;;;;12.30;74.40;92922.31;2054504;70;20049;-75
2023/06/17 03:02:10;;;;;;;;;;;;;;;12.28;73.99;92918.63;2054495;69;20097;-75
2023/06/17 03:04:37;;;;;;;;;;;;;;;12.39;73.27;92917.88;2051534;70;20082;-76
2023/06/17 03:07:04;;;;;;;;;;;;;;;12.25;74.58;92909.31;2054712;70;20061;-75
2023/06/17 03:09:30;;;;;;;;;;;;;;;12.07;75.00;92908.97;2048905;70;20436;-75
2023/06/17 03:12:02;;;;;;;;;;;;;;;12.21;74.88;92909.06;2051752;70;20058;-74
2023/06/17 03:14:29;;;;;;;;;;;;;;;12.25;75.07;92905.75;2051751;70;20051;-75
2023/06/17 03:16:57;;;;;;;;;;;;;;;12.29;74.92;92909.56;2051376;70;20138;-75
2023/06/17 03:19:23;;;;;;;;;;;;;;;12.32;74.60;92911.13;2051483;69;20062;-75
2023/06/17 03:21:49;;;;;;;;;;;;;;;12.17;75.31;92912.38;2054943;69;20053;-75
2023/06/17 03:24:15;;;;;;;;;;;;;;;12.28;75.22;92913.72;2054686;69;20077;-75
2023/06/17 03:26:42;;;;;;;;;;;;;;;12.38;75.09;92911.50;2054994;69;20058;-74
2023/06/17 03:29:08;;;;;;;;;;;;;;;12.26;75.86;92910.78;2058684;69;20142;-74
2023/06/17 03:31:35;;;;;;;;;;;;;;;12.35;75.05;92914.81;2050223;70;20490;-75
2023/06/17 03:34:03;;;;;;;;;;;;;;;12.45;74.74;92915.38;2051128;70;20437;-75
2023/06/17 03:36:29;;;;;;;;;;;;;;;12.47;74.74;92912.69;2051263;70;20050;-74
2023/06/17 03:38:56;;;;;;;;;;;;;;;12.53;74.38;92921.50;2051644;70;20601;-75
2023/06/17 03:41:24;;;;;;;;;;;;;;;12.47;75.61;92918.34;2054867;70;20145;-74
2023/06/17 03:43:50;;;;;;;;;;;;;;;11.64;78.79;92931.09;2054848;70;20049;-74
2023/06/17 03:46:15;;;;;;;;;;;;;;;12.13;76.67;92940.38;2054878;69;20118;-74
2023/06/17 03:48:41;;;;;;;;;;;;;;;12.25;76.27;92933.97;2051418;70;20090;-75
2023/06/17 03:51:06;;;;;;;;;;;;;;;12.36;75.51;92942.41;2051375;70;20133;-75
2023/06/17 03:53:33;;;;;;;;;;;;;;;12.45;75.41;92940.78;2051417;70;20141;-74
2023/06/17 03:55:59;;;;;;;;;;;;;;;12.48;74.63;92936.75;2051519;70;20050;-74
2023/06/17 03:58:25;;;;;;;;;;;;;;;11.86;77.84;92937.34;2055113;70;20541;-74
2023/06/17 04:00:51;;;;;;;;;;;;;;;11.90;78.32;92932.69;2048283;70;20055;-75
2023/06/17 04:03:25;;;;;;;;;;;;;;;12.30;76.39;92939.25;2051105;70;20043;-74
2023/06/17 04:05:51;;;;;;;;;;;;;;;12.36;76.32;92931.13;2051449;70;20072;-74
2023/06/17 04:08:18;;;;;;;;;;;;;;;12.44;76.14;92939.34;2054865;70;20046;-75
2023/06/17 04:10:44;;;;;;;;;;;;;;;12.52;75.75;92931.34;2055448;69;20116;-74
2023/06/17 04:13:09;;;;;;;;;;;;;;;12.54;75.90;92925.78;2052017;70;20149;-75
2023/06/17 04:15:36;;;;;;;;;;;;;;;12.56;74.46;92917.44;2054319;70;20078;-75
2023/06/17 04:18:03;;;;;;;;;;;;;;;12.51;75.50;92921.41;2048133;70;20054;-77
2023/06/17 04:20:29;;;;;;;;;;;;;;;12.67;74.42;92925.13;2051641;70;20049;-75
2023/06/17 04:22:55;;;;;;;;;;;;;;;12.64;75.53;92917.16;2051718;70;20057;-74
2023/06/17 04:25:22;;;;;;;;;;;;;;;12.71;75.49;92916.88;2051633;70;20042;-74
2023/06/17 04:27:53;;;;;;;;;;;;;;;12.78;75.85;92917.94;2051662;70;20418;-75
2023/06/17 04:30:20;;;;;;;;;;;;;;;12.90;74.81;92920.72;2051536;70;20049;-74
2023/06/17 04:32:50;;;;;;;;;;;;;;;12.70;75.91;92904.13;2054494;69;20123;-73
2023/06/17 04:35:18;;;;;;;;;;;;;;;12.96;75.90;92921.78;2054047;69;20088;-74
2023/06/17 04:37:53;;;;;;;;;;;;;;;13.18;73.61;92922.28;2054577;69;20046;-72
2023/06/17 04:40:20;;;;;;;;;;;;;;;13.18;74.23;92921.56;2056827;69;20811;-73
2023/06/17 04:42:52;;;;;;;;;;;;;;;13.34;71.80;92924.56;2053832;69;20150;-75
2023/06/17 04:45:19;;;;;;;;;;;;;;;13.34;72.48;92913.25;2052190;69;20057;-75
2023/06/17 04:47:50;;;;;;;;;;;;;;;13.08;75.16;92924.56;2057123;69;20058;-75
2023/06/17 04:50:19;;;;;;;;;;;;;;;13.23;74.12;92914.78;2056813;69;20054;-75
2023/06/17 04:52:47;;;;;;;;;;;;;;;13.40;74.00;92919.25;2052963;69;20145;-75
2023/06/17 04:55:27;;;;;;;;;;;;;;;13.35;74.02;92904.16;2051793;70;20058;-75
2023/06/17 04:57:56;;;;;;;;;;;;;;;13.53;72.53;92909.31;2053320;70;20081;-75
2023/06/17 05:00:46;;;;;;;;;;;;;;;13.50;70.61;92907.72;2054027;70;20054;-75
2023/06/17 05:03:19;;;;;;;;;;;;;;;13.68;69.27;92914.34;2052556;70;20437;-75
2023/06/17 05:05:45;;;;;;;;;;;;;;;13.86;67.59;92912.47;2053408;69;20499;-75
2023/06/17 05:08:11;;;;;;;;;;;;;;;13.77;67.95;92916.25;2054915;70;20508;-75
2023/06/17 05:10:36;;;;;;;;;;;;;;;13.81;68.93;92922.13;2055716;70;20066;-75
2023/06/17 05:13:02;;;;;;;;;;;;;;;13.80;68.63;92917.84;2052325;70;20120;-75
2023/06/17 05:15:30;;;;;;;;;;;;;;;13.84;70.31;92920.88;2052879;70;20057;-75
2023/06/17 05:17:56;;;;;;;;;;;;;;;13.82;70.79;92914.38;2052467;70;20172;-75
2023/06/17 05:20:23;;;;;;;;;;;;;;;13.77;70.34;92918.34;2052948;70;20203;-75
2023/06/17 05:22:48;;;;;;;;;;;;;;;13.83;69.29;92919.38;2052288;70;20463;-75
2023/06/17 05:25:14;;;;;;;;;;;;;;;13.79;70.61;92918.44;2052413;70;20150;-74
2023/06/17 05:27:40;;;;;;;;;;;;;;;13.76;70.33;92919.72;2052367;70;20462;-75
2023/06/17 05:30:07;;;;;;;;;;;;;;;13.72;70.03;92931.56;2050095;69;20473;-75
2023/06/17 05:32:33;;;;;;;;;;;;;;;13.68;70.90;92926.41;2053313;69;20523;-76
2023/06/17 05:35:00;;;;;;;;;;;;;;;13.45;69.34;92929.41;2059210;69;20091;-74
2023/06/17 05:37:27;;;;;;;;;;;;;;;13.54;71.23;92922.81;2055483;69;20050;-75
2023/06/17 05:39:52;;;;;;;;;;;;;;;13.62;71.59;92925.38;2052082;70;20057;-74
2023/06/17 05:42:18;;;;;;;;;;;;;;;13.76;70.08;92920.44;2055475;69;20497;-74
2023/06/17 05:44:45;;;;;;;;;;;;;;;13.79;69.72;92926.94;2054805;70;20096;-75
2023/06/17 05:47:11;;;;;;;;;;;;;;;13.80;70.42;92920.66;2048939;70;20161;-74
2023/06/17 05:49:36;;;;;;;;;;;;;;;13.74;70.60;92931.66;2051622;70;20501;-74
2023/06/17 05:52:02;;;;;;;;;;;;;;;13.83;70.22;92925.03;2055415;70;20054;-75
2023/06/17 05:54:28;;;;;;;;;;;;;;;13.93;69.91;92925.59;2051908;69;20082;-75
2023/06/17 05:56:57;;;;;;;;;;;;;;;13.84;68.04;92923.72;2051993;70;20091;-75
2023/06/17 05:59:23;;;;;;;;;;;;;;;13.90;68.27;92926.84;2051469;70;20058;-74
2023/06/17 06:01:50;;;;;;;;;;;;;;;13.74;68.32;92923.16;2051443;70;20061;-74
2023/06/17 06:04:15;;;;;;;;;;;;;;;13.84;70.33;92922.97;2051766;70;20104;-74
2023/06/17 06:06:41;;;;;;;;;;;;;;;13.98;69.87;92918.78;2055481;70;20090;-75
2023/06/17 06:09:06;;;;;;;;;;;;;;;13.91;70.35;92921.91;2055422;70;20070;-75
2023/06/17 06:11:33;;;;;;;;;;;;;;;13.82;69.19;92914.38;2051689;70;20050;-75
2023/06/17 06:13:59;;;;;;;;;;;;;;;14.02;69.89;92909.78;2049061;70;20053;-76
2023/06/17 06:16:25;;;;;;;;;;;;;;;13.69;66.62;92919.38;2056299;69;20046;-75
2023/06/17 06:18:50;;;;;;;;;;;;;;;13.97;66.84;92913.72;2058521;69;20053;-74
2023/06/17 06:21:17;;;;;;;;;;;;;;;13.92;66.27;92912.78;2057839;69;20078;-75
2023/06/17 06:23:43;;;;;;;;;;;;;;;14.28;66.45;92918.84;2055399;69;20216;-75
2023/06/17 06:26:09;;;;;;;;;;;;;;;14.16;65.32;92916.16;2049658;70;20050;-74
2023/06/17 06:28:36;;;;;;;;;;;;;;;14.13;65.05;92908.91;2056319;70;20072;-74
2023/06/17 06:31:01;;;;;;;;;;;;;;;14.50;67.22;92916.44;2053982;70;20085;-74
2023/06/17 06:33:28;;;;;;;;;;;;;;;14.32;67.20;92912.66;2051864;69;20072;-74
2023/06/17 06:35:54;;;;;;;;;;;;;;;14.51;66.62;92908.69;2058766;69;20489;-74
2023/06/17 06:38:21;;;;;;;;;;;;;;;14.58;66.27;92913.28;2055284;69;20053;-73
2023/06/17 06:40:47;;;;;;;;;;;;;;;14.44;64.94;92916.84;2058577;69;20087;-75
2023/06/17 06:43:13;;;;;;;;;;;;;;;14.42;64.79;92913.91;2052764;69;20092;-75
2023/06/17 06:45:47;;;;;;;;;;;;;;;14.84;65.63;92922.31;2054072;69;20054;-74
2023/06/17 06:48:13;;;;;;;;;;;;;;;15.02;65.12;92911.88;2051571;69;20057;-76
2023/06/17 06:50:49;;;;;;;;;;;;;;;14.76;65.50;92902.84;2053366;69;20050;-76
2023/06/17 06:53:21;;;;;;;;;;;;;;;14.99;65.72;92916.72;2056542;69;20073;-75
2023/06/17 06:55:48;;;;;;;;;;;;;;;15.03;66.48;92909.75;2051921;70;20139;-75
2023/06/17 06:58:15;;;;;;;;;;;;;;;15.18;66.61;92906.25;2051969;70;20147;-73
2023/06/17 07:00:41;;;;;;;;;;;;;;;15.31;66.62;92919.63;2055956;69;20142;-75
2023/06/17 07:03:07;;;;;;;;;;;;;;;15.45;65.02;92917.44;2053338;70;20170;-75
2023/06/17 07:05:34;;;;;;;;;;;;;;;15.51;66.30;92912.03;2055143;69;20430;-75
2023/06/17 07:08:02;;;;;;;;;;;;;;;15.58;67.52;92915.16;2058198;69;20490;-76
2023/06/17 07:10:28;;;;;;;;;;;;;;;15.75;66.99;92906.03;2054477;69;20061;-76
2023/06/17 07:12:55;;;;;;;;;;;;;;;15.91;67.58;92914.56;2054858;69;20101;-75
2023/06/17 07:15:22;;;;;;;;;;;;;;;16.01;66.41;92915.72;2054391;69;20153;-77
2023/06/17 07:17:49;;;;;;;;;;;;;;;16.07;69.06;92912.41;2055448;69;20058;-76
2023/06/17 07:20:14;;;;;;;;;;;;;;;16.26;69.03;92906.19;2054995;69;20046;-76
2023/06/17 07:22:40;;;;;;;;;;;;;;;16.50;68.61;92915.00;2058758;69;20102;-75
2023/06/17 07:25:06;;;;;;;;;;;;;;;16.61;68.19;92898.38;2058806;69;20573;-75
2023/06/17 07:27:32;;;;;;;;;;;;;;;16.65;67.16;92896.41;2058921;69;20133;-76
2023/06/17 07:29:58;;;;;;;;;;;;;;;16.81;68.26;92895.66;2058638;69;20433;-75
2023/06/17 07:32:24;;;;;;;;;;;;;;;17.05;67.34;92895.91;2055031;69;20038;-75
2023/06/17 07:34:50;;;;;;;;;;;;;;;17.09;66.87;92896.81;2058312;69;20058;-75
2023/06/17 07:37:17;;;;;;;;;;;;;;;17.16;66.77;92889.25;2058200;69;20101;-76
2023/06/17 07:39:47;;;;;;;;;;;;;;;17.18;65.47;92886.47;2058578;69;20050;-75
2023/06/17 07:42:14;;;;;;;;;;;;;;;17.38;66.05;92890.13;2058024;69;20058;-75
2023/06/17 07:44:43;;;;;;;;;;;;;;;17.57;64.87;92894.38;2054416;69;20054;-73
2023/06/17 07:47:09;;;;;;;;;;;;;;;17.84;63.94;92889.72;2056629;69;20054;-74
2023/06/17 07:49:36;;;;;;;;;;;;;;;17.99;60.97;92883.13;2058885;69;20124;-74
2023/06/17 07:52:02;;;;;;;;;;;;;;;18.11;60.14;92875.03;2052086;70;20191;-76
2023/06/17 07:54:27;;;;;;;;;;;;;;;18.17;59.95;92868.81;2055187;70;20066;-76
2023/06/17 07:57:11;;;;;;;;;;;;;;;18.23;55.71;92875.44;2053810;70;20121;-75
2023/06/17 07:59:37;;;;;;;;;;;;;;;18.40;53.92;92864.63;2050997;70;20555;-75
2023/06/17 08:02:02;;;;;;;;;;;;;;;18.53;52.63;92864.38;2054446;70;20058;-75
2023/06/17 08:04:29;;;;;;;;;;;;;;;18.69;55.60;92866.34;2056261;69;20050;-76
2023/06/17 08:06:55;;;;;;;;;;;;;;;18.78;56.88;92865.22;2054000;70;20054;-76
2023/06/17 08:09:22;;;;;;;;;;;;;;;18.82;56.99;92856.78;2056350;69;20052;-76
2023/06/17 08:11:49;;;;;;;;;;;;;;;18.98;58.28;92860.19;2057624;69;20058;-75
2023/06/17 08:14:15;;;;;;;;;;;;;;;19.28;58.64;92857.53;2058084;69;20112;-74
2023/06/17 08:16:42;;;;;;;;;;;;;;;19.54;58.53;92851.94;2055947;69;20124;-75
2023/06/17 08:19:07;;;;;;;;;;;;;;;19.62;55.09;92845.75;2054159;69;20211;-75
2023/06/17 08:21:34;;;;;;;;;;;;;;;19.94;57.21;92848.09;2056671;69;20526;-76
2023/06/17 08:24:15;;;;;;;;;;;;;;;20.51;55.23;92841.09;2056664;69;20141;-76
2023/06/17 08:26:43;;;;;;;;;;;;;;;20.93;51.27;92837.84;2055182;69;20062;-76
2023/06/17 08:29:13;;;;;;;;;;;;;;;21.48;50.32;92837.03;2054603;69;20057;-77
2023/06/17 08:31:44;;;;;;;;;;;;;;;21.82;47.23;92831.34;2056971;69;20054;-76
2023/06/17 08:34:10;;;;;;;;;;;;;;;22.21;46.71;92828.53;2057621;69;20125;-76
2023/06/17 08:36:38;;;;;;;;;;;;;;;22.72;47.62;92838.81;2053458;69;20062;-77
2023/06/17 08:39:04;;;;;;;;;;;;;;;23.15;44.62;92830.97;2054485;69;20050;-75
2023/06/17 08:41:30;;;;;;;;;;;;;;;23.37;42.96;92827.72;2055677;69;20141;-76
2023/06/17 08:43:57;;;;;;;;;;;;;;;23.10;43.34;92823.72;2058234;69;20049;-76
2023/06/17 08:46:24;;;;;;;;;;;;;;;23.58;43.38;92828.72;2054557;69;20060;-76
2023/06/17 08:48:50;;;;;;;;;;;;;;;23.94;42.61;92825.66;2057987;69;20413;-76
2023/06/17 08:51:16;;;;;;;;;;;;;;;23.13;41.49;92816.56;2058092;69;20060;-76
2023/06/17 08:53:43;;;;;;;;;;;;;;;22.65;41.19;92816.47;2056159;69;20510;-76
2023/06/17 08:56:09;;;;;;;;;;;;;;;22.90;39.96;92814.75;2054707;69;20433;-76
2023/06/17 08:58:37;;;;;;;;;;;;;;;23.32;42.31;92818.31;2055620;69;20050;-76
2023/06/17 09:01:03;;;;;;;;;;;;;;;24.31;39.01;92812.44;2055263;69;20521;-76
2023/06/17 09:03:29;;;;;;;;;;;;;;;24.52;38.57;92806.94;2055344;69;20267;-76
2023/06/17 09:05:54;;;;;;;;;;;;;;;24.59;38.94;92814.94;2056247;69;20169;-75
2023/06/17 09:08:20;;;;;;;;;;;;;;;24.55;37.30;92806.25;2057289;69;20488;-75
2023/06/17 09:10:46;;;;;;;;;;;;;;;24.98;35.78;92808.81;2058131;69;20242;-75
2023/06/17 09:13:11;;;;;;;;;;;;;;;25.72;35.05;92810.84;2054943;69;20589;-75
2023/06/17 09:15:40;;;;;;;;;;;;;;;26.18;34.56;92815.41;2054722;70;20155;-75
2023/06/17 09:18:07;;;;;;;;;;;;;;;26.38;36.48;92811.16;2054905;70;20062;-75
2023/06/17 09:20:32;;;;;;;;;;;;;;;26.57;35.62;92806.91;2054173;69;20054;-74
2023/06/17 09:22:58;;;;;;;;;;;;;;;25.36;34.12;92805.56;2054465;69;20061;-77
2023/06/17 09:25:23;;;;;;;;;;;;;;;25.75;33.75;92800.78;2057558;69;20042;-77
2023/06/17 09:27:50;;;;;;;;;;;;;;;26.04;34.52;92786.53;2057215;69;20445;-76
2023/06/17 09:30:16;;;;;;;;;;;;;;;26.17;34.21;92804.59;2058456;69;20303;-77
2023/06/17 09:32:42;;;;;;;;;;;;;;;25.54;34.26;92797.03;2057242;69;20273;-77
2023/06/17 09:35:14;;;;;;;;;;;;;;;25.70;35.42;92795.66;2055225;69;20073;-76
2023/06/17 09:37:51;;;;;;;;;;;;;;;25.87;34.38;92797.25;2054364;69;20116;-76
2023/06/17 09:40:16;;;;;;;;;;;;;;;25.64;34.75;92790.59;2054538;70;20070;-77
2023/06/17 09:42:42;;;;;;;;;;;;;;;25.09;35.22;92784.47;2056488;69;20080;-77
2023/06/17 09:45:11;;;;;;;;;;;;;;;25.09;36.11;92788.06;2057996;69;20064;-77
2023/06/17 09:47:40;;;;;;;;;;;;;;;25.52;36.57;92779.75;2058243;69;20128;-76
2023/06/17 09:50:08;;;;;;;;;;;;;;;25.41;33.77;92789.72;2058198;69;20086;-77
2023/06/17 09:52:35;;;;;;;;;;;;;;;25.27;34.48;92787.47;2057501;69;20046;-76
2023/06/17 09:55:05;;;;;;;;;;;;;;;25.65;34.69;92782.69;2057722;69;20509;-76
2023/06/17 09:57:34;;;;;;;;;;;;;;;26.59;33.17;92786.72;2057416;69;20089;-76
2023/06/17 10:00:10;;;;;;;;;;;;;;;27.73;32.27;92768.72;2056519;69;20058;-76
2023/06/17 10:02:39;;;;;;;;;;;;;;;28.03;31.72;92773.69;2053895;69;20050;-77
2023/06/17 10:05:17;;;;;;;;;;;;;;;28.74;29.13;92769.75;2053720;70;20058;-76
2023/06/17 10:07:43;;;;;;;;;;;;;;;28.61;29.59;92769.09;2053813;69;20058;-76
2023/06/17 10:10:09;;;;;;;;;;;;;;;28.32;28.91;92766.34;2050792;70;20065;-75
2023/06/17 10:12:36;;;;;;;;;;;;;;;28.90;28.09;92769.63;2056502;69;20409;-76
2023/06/17 10:15:03;;;;;;;;;;;;;;;29.78;28.04;92758.06;2058060;69;20046;-76
2023/06/17 10:17:30;;;;;;;;;;;;;;;29.76;27.52;92766.06;2054793;69;20087;-76
2023/06/17 10:19:56;;;;;;;;;;;;;;;29.81;27.34;92767.47;2054651;69;20509;-77
2023/06/17 10:22:22;;;;;;;;;;;;;;;30.85;26.13;92766.97;2054940;69;20172;-76
2023/06/17 10:24:49;;;;;;;;;;;;;;;31.66;24.37;92769.31;2058280;69;20053;-76
2023/06/17 10:27:20;;;;;;;;;;;;;;;31.40;24.35;92756.69;2058395;69;20482;-77
2023/06/17 10:29:48;;;;;;;;;;;;;;;31.29;24.83;92756.13;2057140;69;20077;-76
2023/06/17 10:32:18;;;;;;;;;;;;;;;31.90;23.46;92757.28;2056243;69;20054;-77
2023/06/17 10:35:03;;;;;;;;;;;;;;;31.83;22.68;92756.66;2058398;69;20046;-77
2023/06/17 10:37:30;;;;;;;;;;;;;;;31.79;21.76;92750.91;2057948;69;20406;-77
2023/06/17 10:40:15;;;;;;;;;;;;;;;32.14;20.24;92747.38;2057876;69;20053;-79
2023/06/17 10:42:51;;;;;;;;;;;;;;;31.70;20.50;92743.06;2055868;69;20093;-81
2023/06/17 10:45:20;;;;;;;;;;;;;;;33.09;18.61;92750.47;2054150;69;20164;-77
2023/06/17 10:47:47;;;;;;;;;;;;;;;33.66;18.93;92744.75;2057678;69;20061;-78
2023/06/17 10:50:25;;;;;;;;;;;;;;;34.52;18.11;92743.91;2058488;69;20070;-76
2023/06/17 10:52:55;;;;;;;;;;;;;;;35.58;17.47;92748.72;2056033;69;20084;-78
2023/06/17 10:55:22;;;;;;;;;;;;;;;37.86;15.04;92748.38;2055596;69;20050;-77
2023/06/17 10:57:47;;;;;;;;;;;;;;;36.97;16.47;92743.84;2054036;69;20550;-77
2023/06/17 11:00:13;;;;;;;;;;;;;;;35.18;14.99;92736.81;2057637;69;20601;-77
2023/06/17 11:02:40;;;;;;;;;;;;;;;38.59;14.20;92738.63;2057811;69;20117;-77
2023/06/17 11:05:06;;;;;;;;;;;;;;;40.49;12.98;92739.03;2057308;69;20046;-77
2023/06/17 11:07:36;;;;;;;;;;;;;;;36.24;15.29;92730.34;2055312;70;20350;-76
2023/06/17 11:10:02;;;;;;;;;;;;;;;36.23;15.60;92728.94;2055074;70;20431;-77
2023/06/17 11:12:27;;;;;;;;;;;;;;;37.05;15.03;92723.69;2051717;69;20147;-78
2023/06/17 11:14:53;;;;;;;;;;;;;;;33.45;17.97;92713.19;2055293;69;20082;-78
2023/06/17 11:17:20;;;;;;;;;;;;;;;33.80;19.57;92712.97;2055187;69;20594;-78
2023/06/17 11:19:47;;;;;;;;;;;;;;;35.44;16.85;92716.97;2051650;70;20132;-78
2023/06/17 11:22:12;;;;;;;;;;;;;;;32.37;18.90;92698.13;2055387;69;20062;-77
2023/06/17 11:24:38;;;;;;;;;;;;;;;35.58;18.28;92714.31;2051520;69;20425;-77
2023/06/17 11:27:05;;;;;;;;;;;;;;;38.24;14.08;92712.97;2052493;69;20403;-77
2023/06/17 11:29:31;;;;;;;;;;;;;;;40.57;13.16;92720.22;2055029;70;20097;-77
2023/06/17 11:32:01;;;;;;;;;;;;;;;41.84;13.79;92719.91;2055011;69;20109;-78
2023/06/17 11:34:31;;;;;;;;;;;;;;;39.06;12.71;92718.84;2054901;70;20062;-77
2023/06/17 11:36:57;;;;;;;;;;;;;;;42.32;12.92;92710.38;2057892;69;20104;-78
2023/06/17 11:39:23;;;;;;;;;;;;;;;41.65;11.81;92711.34;2056062;69;20129;-78
2023/06/17 11:41:50;;;;;;;;;;;;;;;42.28;11.41;92706.97;2055824;69;20160;-77
2023/06/17 11:44:16;;;;;;;;;;;;;;;42.16;11.53;92701.78;2054901;69;20435;-78
2023/06/17 11:46:49;;;;;;;;;;;;;;;43.96;11.27;92703.81;2054762;69;20058;-77
2023/06/17 11:49:15;;;;;;;;;;;;;;;44.21;10.66;92699.88;2058000;69;20504;-78
2023/06/17 11:51:47;;;;;;;;;;;;;;;43.58;11.91;92695.91;2058521;69;20042;-77
2023/06/17 11:54:12;;;;;;;;;;;;;;;42.52;11.07;92695.88;2058141;69;20474;-77
2023/06/17 11:56:40;;;;;;;;;;;;;;;42.40;12.30;92682.56;2058334;69;20073;-77
2023/06/17 11:59:07;;;;;;;;;;;;;;;40.67;11.65;92675.41;2057539;69;20152;-77
2023/06/17 12:01:33;;;;;;;;;;;;;;;40.73;13.09;92677.31;2053979;69;20106;-77
2023/06/17 12:03:59;;;;;;;;;;;;;;;39.23;11.82;92659.94;2054830;69;20089;-77
2023/06/17 12:06:26;;;;;;;;;;;;;;;37.86;14.28;92652.16;2057560;69;20236;-78
2023/06/17 12:08:57;;;;;;;;;;;;;;;36.99;14.43;92649.91;2053076;69;20058;-78
2023/06/17 12:11:28;;;;;;;;;;;;;;;36.91;16.23;92645.06;2057279;69;20461;-76
2023/06/17 12:13:54;;;;;;;;;;;;;;;34.80;16.00;92639.28;2052395;69;20046;-77
2023/06/17 12:16:31;;;;;;;;;;;;;;;34.42;19.08;92641.19;2058908;69;20420;-76
2023/06/17 12:18:57;;;;;;;;;;;;;;;32.21;17.99;92623.47;2057146;69;20081;-77
2023/06/17 12:21:23;;;;;;;;;;;;;;;32.78;16.42;92621.47;2050676;69;20876;-77
2023/06/17 12:23:51;;;;;;;;;;;;;;;31.93;18.13;92621.88;2055843;69;20258;-78
2023/06/17 12:26:19;;;;;;;;;;;;;;;32.45;17.87;92615.69;2055269;69;20058;-77
2023/06/17 12:28:45;;;;;;;;;;;;;;;31.88;18.48;92614.69;2055154;69;20074;-76
2023/06/17 12:31:11;;;;;;;;;;;;;;;32.10;18.67;92613.50;2052045;69;20710;-77
2023/06/17 12:33:37;;;;;;;;;;;;;;;31.45;19.25;92611.91;2056771;69;20093;-76
2023/06/17 12:36:04;;;;;;;;;;;;;;;31.35;18.62;92610.63;2053924;70;20483;-77
2023/06/17 12:38:30;;;;;;;;;;;;;;;32.47;19.12;92609.81;2054318;70;20051;-77
2023/06/17 12:40:58;;;;;;;;;;;;;;;30.66;19.76;92608.88;2054356;69;20066;-77
2023/06/17 12:43:24;;;;;;;;;;;;;;;31.29;18.49;92604.19;2057526;69;20054;-77
2023/06/17 12:45:49;;;;;;;;;;;;;;;30.77;18.51;92607.25;2051537;70;20073;-76
2023/06/17 12:48:15;;;;;;;;;;;;;;;30.24;21.16;92598.63;2051333;70;20046;-77